Time;durP1;ratioP1;P1;durP2;ratioP2;P2;SDS_P1;SDS_P2;PMS_P1;PMS_P2;Temp;Humidity;BMP_temperature;BMP_pressure;BME280_temperature;BME280_humidity;BME280_pressure;Samples;Min_cycle;Max_cycle;Signal;HPM_P1;HPM_P2
2023/03/03 00:01:18;;;;;;;15.73;7.68;;;2.00;70.80;;;;;;5061754;28;20056;-73
2023/03/03 00:03:52;;;;;;;16.33;7.65;;;2.00;70.80;;;;;;5067322;28;20133;-73
2023/03/03 00:06:23;;;;;;;15.73;7.50;;;2.00;70.90;;;;;;5065092;28;20491;-74
2023/03/03 00:08:52;;;;;;;20.73;8.05;;;1.90;71.00;;;;;;5064965;28;20054;-73
2023/03/03 00:11:19;;;;;;;16.52;7.75;;;1.90;71.10;;;;;;5059702;28;20488;-68
2023/03/03 00:13:49;;;;;;;17.75;8.70;;;2.00;71.10;;;;;;5063496;28;20183;-68
2023/03/03 00:16:22;;;;;;;17.55;9.07;;;1.90;71.20;;;;;;5063012;28;20415;-68
2023/03/03 00:18:49;;;;;;;17.83;8.35;;;1.90;71.30;;;;;;5062748;28;20068;-70
2023/03/03 00:21:28;;;;;;;17.40;8.07;;;1.90;71.40;;;;;;5063995;28;20044;-74
2023/03/03 00:23:58;;;;;;;16.80;7.90;;;1.80;71.60;;;;;;5060822;28;20108;-73
2023/03/03 00:26:32;;;;;;;19.33;8.40;;;1.80;71.70;;;;;;5067709;28;20067;-72
2023/03/03 00:29:01;;;;;;;16.10;7.75;;;1.80;71.80;;;;;;5063283;28;20052;-73
2023/03/03 00:31:33;;;;;;;16.27;8.15;;;1.80;71.80;;;;;;5064225;28;20503;-63
2023/03/03 00:34:19;;;;;;;16.73;8.38;;;1.80;71.90;;;;;;5054042;28;20044;-64
2023/03/03 00:36:54;;;;;;;16.92;8.73;;;1.70;71.90;;;;;;5063006;28;20403;-63
2023/03/03 00:39:28;;;;;;;16.77;7.95;;;1.80;72.00;;;;;;5060378;28;20559;-63
2023/03/03 00:41:56;;;;;;;16.27;8.38;;;1.70;72.20;;;;;;5060940;28;20063;-69
2023/03/03 00:44:41;;;;;;;14.68;7.88;;;1.70;72.20;;;;;;5065543;28;20070;-69
2023/03/03 00:47:25;;;;;;;14.95;7.60;;;1.70;72.20;;;;;;5062758;28;20060;-70
2023/03/03 00:49:53;;;;;;;16.85;7.50;;;1.70;72.20;;;;;;5059501;28;20044;-69
2023/03/03 00:52:27;;;;;;;15.25;7.15;;;1.70;72.50;;;;;;5062704;28;20048;-62
2023/03/03 00:54:54;;;;;;;14.15;6.95;;;1.70;72.70;;;;;;5065054;28;20147;-62
2023/03/03 00:57:21;;;;;;;15.95;6.85;;;1.70;72.60;;;;;;5066884;28;20056;-70
2023/03/03 00:59:49;;;;;;;14.07;7.07;;;1.70;72.70;;;;;;5064062;28;20064;-69
2023/03/03 01:02:16;;;;;;;13.32;6.68;;;1.60;72.80;;;;;;5064058;28;20047;-62
2023/03/03 01:04:47;;;;;;;14.40;6.95;;;1.60;72.90;;;;;;5064019;28;20052;-63
2023/03/03 01:07:14;;;;;;;11.90;6.32;;;1.60;73.00;;;;;;5061445;28;20044;-64
2023/03/03 01:09:41;;;;;;;12.45;6.80;;;1.60;73.10;;;;;;5062724;28;20037;-64
2023/03/03 01:12:09;;;;;;;12.07;6.13;;;1.50;73.10;;;;;;5061055;28;20048;-73
2023/03/03 01:14:36;;;;;;;11.15;5.68;;;1.50;73.20;;;;;;5063085;28;20548;-74
2023/03/03 01:17:04;;;;;;;13.02;5.85;;;1.60;73.10;;;;;;5065564;28;20475;-69
2023/03/03 01:19:32;;;;;;;11.60;6.55;;;1.50;73.20;;;;;;5065030;28;20072;-68
2023/03/03 01:21:59;;;;;;;13.43;5.97;;;1.50;73.20;;;;;;5059144;28;20502;-73
2023/03/03 01:24:26;;;;;;;11.95;5.95;;;1.50;73.20;;;;;;5064358;28;20048;-73
2023/03/03 01:26:52;;;;;;;13.00;5.93;;;1.40;73.40;;;;;;5063937;28;20047;-68
2023/03/03 01:29:19;;;;;;;12.48;6.80;;;1.40;73.60;;;;;;5063748;28;20480;-68
2023/03/03 01:31:46;;;;;;;15.13;6.80;;;1.40;73.70;;;;;;5064719;28;20051;-67
2023/03/03 01:34:14;;;;;;;11.95;6.53;;;1.30;73.60;;;;;;5063659;28;20734;-69
2023/03/03 01:36:41;;;;;;;14.57;6.75;;;1.30;73.80;;;;;;5059195;28;20125;-73
2023/03/03 01:39:10;;;;;;;14.98;6.93;;;1.40;73.80;;;;;;5060391;28;20423;-74
2023/03/03 01:41:36;;;;;;;14.50;6.90;;;1.40;73.70;;;;;;5067119;28;20530;-64
2023/03/03 01:44:03;;;;;;;16.60;7.85;;;1.40;73.90;;;;;;5061033;28;20053;-63
2023/03/03 01:46:51;;;;;;;15.05;7.60;;;1.30;74.10;;;;;;5061830;28;20060;-62
2023/03/03 01:49:23;;;;;;;19.40;8.07;;;1.30;74.20;;;;;;5041927;28;20080;-62
2023/03/03 01:51:55;;;;;;;15.00;7.82;;;1.30;74.50;;;;;;5040328;28;20048;-65
2023/03/03 01:54:26;;;;;;;16.65;7.53;;;1.30;74.50;;;;;;5038306;28;20056;-65
2023/03/03 01:56:56;;;;;;;16.70;7.95;;;1.30;74.60;;;;;;5052383;28;20048;-65
2023/03/03 01:59:33;;;;;;;19.63;7.65;;;1.30;74.60;;;;;;5061574;28;20041;-65
2023/03/03 02:02:00;;;;;;;15.93;7.68;;;1.30;74.60;;;;;;5061114;28;20045;-67
2023/03/03 02:04:29;;;;;;;16.90;8.05;;;1.30;74.70;;;;;;5062760;28;20063;-65
2023/03/03 02:07:00;;;;;;;15.07;8.00;;;1.20;74.80;;;;;;5059937;28;20123;-63
2023/03/03 02:09:37;;;;;;;18.58;9.52;;;1.30;74.70;;;;;;5060420;28;20072;-64
2023/03/03 02:12:08;;;;;;;18.90;9.73;;;1.30;74.80;;;;;;5066374;28;20044;-65
2023/03/03 02:14:35;;;;;;;18.95;9.05;;;1.30;74.90;;;;;;5064005;28;20056;-66
2023/03/03 02:17:02;;;;;;;19.48;9.13;;;1.20;75.10;;;;;;5063628;28;20048;-64
2023/03/03 02:19:36;;;;;;;22.58;10.70;;;1.20;75.10;;;;;;5062572;28;20053;-64
2023/03/03 02:22:03;;;;;;;18.75;10.30;;;1.20;75.40;;;;;;5060691;28;20509;-63
2023/03/03 02:24:40;;;;;;;21.73;9.98;;;1.10;75.60;;;;;;5078936;28;20502;-63
2023/03/03 02:27:08;;;;;;;21.08;10.68;;;1.10;75.70;;;;;;5060205;28;20074;-69
2023/03/03 02:29:35;;;;;;;20.25;10.38;;;1.10;75.70;;;;;;5059538;28;20484;-67
2023/03/03 02:32:04;;;;;;;21.13;11.45;;;1.20;75.90;;;;;;5058626;28;20052;-63
2023/03/03 02:34:31;;;;;;;21.35;11.93;;;1.20;76.30;;;;;;5061523;28;20056;-62
2023/03/03 02:36:58;;;;;;;18.13;11.15;;;1.20;76.30;;;;;;5062065;28;20395;-65
2023/03/03 02:39:28;;;;;;;22.35;12.43;;;1.20;76.40;;;;;;5062962;28;20041;-64
2023/03/03 02:42:02;;;;;;;19.13;11.25;;;1.20;76.50;;;;;;5061823;28;20056;-67
2023/03/03 02:44:37;;;;;;;20.00;10.93;;;1.20;76.70;;;;;;5061764;28;20470;-69
2023/03/03 02:47:04;;;;;;;21.73;12.27;;;1.20;76.90;;;;;;5064829;28;20072;-70
2023/03/03 02:49:33;;;;;;;20.38;11.65;;;1.20;77.10;;;;;;5064831;28;20502;-69
2023/03/03 02:52:01;;;;;;;23.60;11.93;;;1.10;77.30;;;;;;5067521;28;20051;-62
2023/03/03 02:54:30;;;;;;;24.95;12.50;;;1.10;77.20;;;;;;5067032;28;20049;-62
2023/03/03 02:56:58;;;;;;;23.13;11.55;;;1.20;77.30;;;;;;5084147;28;20483;-69
2023/03/03 02:59:26;;;;;;;24.25;12.98;;;1.10;77.30;;;;;;5057375;28;20051;-70
2023/03/03 03:01:56;;;;;;;22.77;12.45;;;1.20;77.30;;;;;;5068422;28;20051;-73
2023/03/03 03:04:25;;;;;;;19.67;11.82;;;1.20;77.40;;;;;;5066145;28;20106;-73
2023/03/03 03:06:54;;;;;;;21.35;12.20;;;1.20;77.30;;;;;;5064046;28;20044;-63
2023/03/03 03:09:24;;;;;;;21.30;11.88;;;1.20;77.40;;;;;;5060925;28;20053;-62
2023/03/03 03:11:54;;;;;;;24.75;12.40;;;1.10;77.60;;;;;;5082498;28;20056;-62
2023/03/03 03:14:24;;;;;;;20.00;12.07;;;1.10;77.80;;;;;;5066494;28;20052;-63
2023/03/03 03:16:53;;;;;;;23.25;12.70;;;1.10;77.60;;;;;;5057375;28;20373;-73
2023/03/03 03:19:23;;;;;;;24.63;12.75;;;1.00;78.00;;;;;;5056488;28;20055;-75
2023/03/03 03:21:50;;;;;;;21.70;11.82;;;1.10;78.30;;;;;;5046132;28;20049;-73
2023/03/03 03:24:18;;;;;;;23.10;12.30;;;1.00;78.50;;;;;;5053208;28;20098;-74
2023/03/03 03:26:50;;;;;;;24.25;12.32;;;1.00;78.50;;;;;;5053015;28;20048;-73
2023/03/03 03:29:17;;;;;;;23.55;11.88;;;1.00;78.70;;;;;;5059132;28;20486;-73
2023/03/03 03:31:44;;;;;;;25.30;11.88;;;1.10;78.50;;;;;;5060391;28;20125;-73
2023/03/03 03:34:11;;;;;;;24.45;12.50;;;1.10;78.60;;;;;;5067873;28;20499;-75
2023/03/03 03:36:39;;;;;;;22.10;12.93;;;1.20;78.60;;;;;;5064947;28;20041;-74
2023/03/03 03:39:07;;;;;;;29.20;13.32;;;1.20;78.90;;;;;;5065363;28;20055;-74
2023/03/03 03:41:36;;;;;;;25.58;13.10;;;1.20;79.00;;;;;;5059847;28;20526;-73
2023/03/03 03:44:03;;;;;;;24.08;13.38;;;1.20;79.10;;;;;;5067649;28;20047;-73
2023/03/03 03:46:30;;;;;;;30.83;14.80;;;1.30;79.30;;;;;;5060945;28;20076;-73
2023/03/03 03:48:58;;;;;;;26.33;13.80;;;1.40;79.50;;;;;;5065591;28;20063;-74
2023/03/03 03:51:25;;;;;;;25.95;14.23;;;1.40;79.90;;;;;;5083675;28;20123;-73
2023/03/03 03:53:53;;;;;;;26.00;13.57;;;1.40;80.00;;;;;;5063840;28;20506;-71
2023/03/03 03:56:20;;;;;;;28.60;14.77;;;1.40;80.00;;;;;;5064903;28;20136;-73
2023/03/03 03:58:51;;;;;;;25.45;13.85;;;1.50;80.10;;;;;;5065216;28;20075;-73
2023/03/03 04:01:18;;;;;;;26.13;14.25;;;1.60;80.30;;;;;;5065512;28;20143;-73
2023/03/03 04:03:48;;;;;;;32.13;16.65;;;1.70;80.40;;;;;;5062025;28;20118;-71
2023/03/03 04:06:19;;;;;;;27.42;14.27;;;1.70;80.60;;;;;;5065299;28;20044;-73
2023/03/03 04:08:46;;;;;;;29.02;14.38;;;1.70;80.60;;;;;;5059869;28;20127;-73
2023/03/03 04:11:16;;;;;;;26.45;14.48;;;1.70;80.70;;;;;;5064848;28;20048;-72
2023/03/03 04:13:43;;;;;;;32.75;16.42;;;1.70;81.00;;;;;;5068639;28;20051;-72
2023/03/03 04:16:12;;;;;;;30.33;16.60;;;1.70;80.70;;;;;;5065531;28;20040;-72
2023/03/03 04:18:42;;;;;;;33.42;16.05;;;1.70;81.20;;;;;;5065872;28;20135;-71
2023/03/03 04:21:12;;;;;;;31.95;16.20;;;1.70;81.40;;;;;;5060156;28;20044;-71
2023/03/03 04:23:39;;;;;;;29.15;15.73;;;1.80;81.10;;;;;;5060035;28;20131;-71
2023/03/03 04:26:06;;;;;;;31.40;16.63;;;1.80;81.30;;;;;;5067165;28;20044;-72
2023/03/03 04:28:35;;;;;;;31.48;16.73;;;1.80;81.70;;;;;;5062219;28;20056;-73
2023/03/03 04:31:03;;;;;;;36.05;18.10;;;1.80;81.20;;;;;;5066698;28;20048;-73
2023/03/03 04:33:32;;;;;;;35.22;17.23;;;1.80;81.60;;;;;;5067314;28;20415;-73
2023/03/03 04:36:00;;;;;;;32.78;17.33;;;1.80;81.80;;;;;;5061915;28;20060;-73
2023/03/03 04:38:27;;;;;;;34.92;17.38;;;1.90;81.80;;;;;;5069301;28;20068;-73
2023/03/03 04:40:56;;;;;;;29.85;16.73;;;1.90;81.40;;;;;;5061423;28;20072;-73
2023/03/03 04:43:25;;;;;;;30.15;15.93;;;1.90;81.80;;;;;;5067740;28;20056;-73
2023/03/03 04:45:54;;;;;;;32.10;16.73;;;1.90;81.50;;;;;;5060221;28;20049;-71
2023/03/03 04:48:22;;;;;;;37.13;18.48;;;2.00;81.60;;;;;;5065569;28;20052;-73
2023/03/03 04:50:49;;;;;;;31.83;17.42;;;2.00;82.10;;;;;;5069004;28;20071;-72
2023/03/03 04:53:16;;;;;;;35.20;16.83;;;2.00;82.10;;;;;;5063225;28;20538;-72
2023/03/03 04:55:43;;;;;;;33.40;17.33;;;2.00;82.30;;;;;;5061144;28;20411;-72
2023/03/03 04:58:10;;;;;;;35.95;18.50;;;2.00;82.00;;;;;;5066506;28;20066;-72
2023/03/03 05:00:39;;;;;;;34.90;17.60;;;2.00;82.40;;;;;;5065940;28;20052;-73
2023/03/03 05:03:10;;;;;;;36.63;17.85;;;2.00;81.60;;;;;;5066804;28;20045;-73
2023/03/03 05:05:40;;;;;;;35.45;18.05;;;2.00;82.10;;;;;;5064232;28;20057;-74
2023/03/03 05:08:07;;;;;;;34.55;17.75;;;2.00;82.50;;;;;;5069630;28;20049;-73
2023/03/03 05:10:33;;;;;;;36.65;17.88;;;2.00;82.10;;;;;;5067650;28;20051;-72
2023/03/03 05:13:00;;;;;;;35.80;18.20;;;2.10;82.50;;;;;;5063435;28;20040;-74
2023/03/03 05:15:28;;;;;;;32.05;17.77;;;2.10;82.40;;;;;;5065840;28;20040;-73
2023/03/03 05:17:55;;;;;;;34.95;19.08;;;2.10;82.50;;;;;;5066401;28;20040;-72
2023/03/03 05:20:24;;;;;;;35.75;19.13;;;2.10;82.00;;;;;;5067190;28;20051;-73
2023/03/03 05:22:51;;;;;;;39.45;18.70;;;2.10;81.80;;;;;;5067014;28;20047;-73
2023/03/03 05:25:18;;;;;;;39.22;18.77;;;2.10;82.40;;;;;;5067788;28;20048;-72
2023/03/03 05:27:46;;;;;;;36.92;18.80;;;2.10;82.70;;;;;;5067210;28;20049;-74
2023/03/03 05:30:13;;;;;;;35.20;18.17;;;2.10;82.30;;;;;;5066617;28;20051;-72
2023/03/03 05:32:40;;;;;;;35.20;17.73;;;2.10;81.80;;;;;;5068051;28;20052;-73
2023/03/03 05:35:07;;;;;;;35.60;18.95;;;2.20;82.00;;;;;;5066560;28;20055;-72
2023/03/03 05:37:36;;;;;;;39.08;18.80;;;2.10;82.60;;;;;;5061756;28;20154;-73
2023/03/03 05:40:04;;;;;;;38.92;19.40;;;2.10;82.40;;;;;;5066138;28;20510;-73
2023/03/03 05:42:31;;;;;;;36.83;18.25;;;2.10;81.80;;;;;;5063214;28;20059;-72
2023/03/03 05:44:58;;;;;;;39.25;19.45;;;2.20;82.00;;;;;;5057907;28;20040;-73
2023/03/03 05:47:25;;;;;;;40.25;19.92;;;2.10;82.30;;;;;;5061658;28;20072;-71
2023/03/03 05:49:51;;;;;;;42.35;19.55;;;2.10;82.70;;;;;;5063467;28;20063;-73
2023/03/03 05:52:18;;;;;;;36.70;18.23;;;2.20;82.20;;;;;;5064021;28;20071;-73
2023/03/03 05:54:46;;;;;;;36.90;17.30;;;2.10;82.40;;;;;;5064558;28;20060;-71
2023/03/03 05:57:14;;;;;;;39.03;19.05;;;2.10;82.70;;;;;;5063879;28;20044;-72
2023/03/03 05:59:41;;;;;;;40.03;19.17;;;2.10;82.60;;;;;;5065002;28;20162;-72
2023/03/03 06:02:08;;;;;;;38.97;18.75;;;2.10;82.80;;;;;;5065383;28;21041;-73
2023/03/03 06:04:35;;;;;;;35.35;18.17;;;2.20;82.90;;;;;;5066537;28;20041;-73
2023/03/03 06:07:03;;;;;;;37.97;19.52;;;2.20;82.60;;;;;;5063464;28;20089;-73
2023/03/03 06:09:30;;;;;;;38.55;18.75;;;2.20;82.70;;;;;;5067242;28;20051;-75
2023/03/03 06:11:58;;;;;;;38.15;18.60;;;2.20;82.80;;;;;;5066309;28;20063;-72
2023/03/03 06:14:25;;;;;;;38.17;18.33;;;2.20;82.80;;;;;;5067506;28;20114;-72
2023/03/03 06:16:52;;;;;;;40.00;19.20;;;2.20;82.00;;;;;;5066688;28;20056;-69
2023/03/03 06:19:19;;;;;;;39.05;18.10;;;2.20;82.40;;;;;;5068632;28;20044;-70
2023/03/03 06:21:45;;;;;;;39.72;18.00;;;2.20;82.60;;;;;;5062180;28;20051;-72
2023/03/03 06:24:12;;;;;;;39.33;18.35;;;2.20;82.00;;;;;;5070783;28;20064;-72
2023/03/03 06:26:39;;;;;;;42.40;19.15;;;2.20;82.50;;;;;;5068292;28;20040;-72
2023/03/03 06:29:07;;;;;;;42.40;18.98;;;2.20;82.80;;;;;;5066438;28;20054;-73
2023/03/03 06:31:35;;;;;;;33.88;17.42;;;2.30;82.70;;;;;;5065252;28;20058;-72
2023/03/03 06:34:02;;;;;;;39.47;19.00;;;2.20;82.30;;;;;;5068263;28;20094;-72
2023/03/03 06:36:30;;;;;;;38.65;19.50;;;2.20;82.40;;;;;;5068229;28;20560;-71
2023/03/03 06:38:57;;;;;;;39.45;18.67;;;2.30;81.90;;;;;;5069549;28;20040;-73
2023/03/03 06:41:23;;;;;;;41.92;19.27;;;2.20;81.90;;;;;;5068493;28;20044;-72
2023/03/03 06:43:57;;;;;;;39.63;18.90;;;2.20;82.50;;;;;;5067309;28;20037;-72
2023/03/03 06:46:25;;;;;;;42.72;20.15;;;2.30;82.60;;;;;;5064940;28;20103;-73
2023/03/03 06:48:52;;;;;;;39.75;18.75;;;2.30;82.30;;;;;;5067785;28;20056;-73
2023/03/03 06:51:27;;;;;;;39.05;19.08;;;2.30;81.80;;;;;;5070869;28;20090;-73
2023/03/03 06:53:56;;;;;;;40.17;19.60;;;2.30;82.30;;;;;;5071594;28;20044;-72
2023/03/03 06:56:24;;;;;;;43.97;19.17;;;2.40;82.40;;;;;;5070179;28;20052;-72
2023/03/03 06:58:54;;;;;;;40.92;19.38;;;2.40;82.30;;;;;;5070285;28;20052;-74
2023/03/03 07:01:21;;;;;;;37.63;17.73;;;2.40;82.10;;;;;;5069732;28;20057;-73
2023/03/03 07:03:49;;;;;;;37.70;18.85;;;2.40;81.50;;;;;;5072310;28;20048;-72
2023/03/03 07:06:24;;;;;;;39.85;18.85;;;2.40;82.00;;;;;;5066942;28;20044;-70
2023/03/03 07:08:52;;;;;;;41.17;19.02;;;2.40;82.20;;;;;;5067649;28;20040;-72
2023/03/03 07:11:22;;;;;;;39.70;18.20;;;2.50;81.60;;;;;;5069450;28;20483;-73
2023/03/03 07:13:50;;;;;;;40.67;18.95;;;2.50;81.70;;;;;;5069963;28;20429;-73
2023/03/03 07:16:19;;;;;;;38.47;18.75;;;2.50;82.00;;;;;;5066536;28;20040;-73
2023/03/03 07:18:51;;;;;;;39.15;18.20;;;2.50;81.50;;;;;;5070211;28;20094;-74
2023/03/03 07:21:20;;;;;;;41.08;18.70;;;2.50;81.40;;;;;;5069349;28;20048;-73
2023/03/03 07:23:49;;;;;;;36.28;17.23;;;2.50;81.90;;;;;;5069292;28;20047;-72
2023/03/03 07:26:18;;;;;;;36.00;18.02;;;2.50;81.70;;;;;;5067836;28;20069;-71
2023/03/03 07:28:51;;;;;;;38.08;18.08;;;2.50;81.70;;;;;;5067737;28;20040;-72
2023/03/03 07:31:37;;;;;;;37.13;17.42;;;2.50;81.50;;;;;;5063167;28;20063;-73
2023/03/03 07:34:19;;;;;;;40.33;18.58;;;2.50;81.50;;;;;;5068161;28;20056;-72
2023/03/03 07:36:46;;;;;;;35.80;17.50;;;2.50;81.50;;;;;;5067098;28;20044;-72
2023/03/03 07:39:34;;;;;;;41.85;18.13;;;2.50;81.30;;;;;;5069284;28;20516;-73
2023/03/03 07:42:34;;;;;;;35.45;18.05;;;2.60;82.10;;;;;;5068215;28;20520;-71
2023/03/03 07:45:27;;;;;;;37.30;16.13;;;2.60;81.50;;;;;;5032540;28;20533;-72
2023/03/03 07:47:59;;;;;;;33.97;17.13;;;2.70;81.90;;;;;;5068400;28;20044;-73
2023/03/03 07:50:27;;;;;;;38.35;17.70;;;2.70;81.00;;;;;;5069636;28;20060;-72
2023/03/03 07:52:58;;;;;;;35.42;17.10;;;2.70;81.80;;;;;;5065038;28;20051;-72
2023/03/03 07:55:30;;;;;;;;;;;2.80;81.10;;;;;;5070232;28;20141;-71
2023/03/03 07:58:15;;;;;;;33.88;15.90;;;2.70;81.20;;;;;;5067884;28;19955;-73
2023/03/03 08:01:27;;;;;;;37.28;16.83;;;2.70;81.70;;;;;;5069310;28;20041;-72
2023/03/03 08:03:55;;;;;;;32.03;15.70;;;2.90;81.80;;;;;;5068935;28;20059;-73
2023/03/03 08:06:41;;;;;;;32.90;15.20;;;2.90;81.50;;;;;;5067336;28;20071;-72
2023/03/03 08:09:39;;;;;;;37.22;15.73;;;2.90;81.00;;;;;;5068205;28;20057;-71
2023/03/03 08:12:40;;;;;;;33.42;15.15;;;2.90;80.80;;;;;;5069302;28;20063;-71
2023/03/03 08:15:22;;;;;;;31.17;15.50;;;2.90;81.10;;;;;;4987156;28;20046;-72
2023/03/03 08:17:50;;;;;;;31.30;14.70;;;2.90;80.60;;;;;;4987985;28;20102;-73
2023/03/03 08:20:55;;;;;;;34.72;15.75;;;3.00;80.50;;;;;;5034009;28;20048;-72
2023/03/03 08:23:23;;;;;;;28.77;13.82;;;3.00;81.10;;;;;;5067552;28;20155;-71
2023/03/03 08:25:51;;;;;;;25.30;13.57;;;3.00;80.40;;;;;;5064513;28;20047;-72
2023/03/03 08:28:18;;;;;;;30.23;14.52;;;3.00;80.30;;;;;;5069565;28;20049;-71
2023/03/03 08:30:46;;;;;;;32.22;14.82;;;3.00;80.50;;;;;;5068400;28;20060;-72
2023/03/03 08:33:14;;;;;;;32.17;15.00;;;3.00;80.50;;;;;;5068282;28;20125;-73
2023/03/03 08:35:41;;;;;;;31.45;14.63;;;3.00;80.50;;;;;;5067727;28;20056;-73
2023/03/03 08:38:09;;;;;;;31.02;14.82;;;3.00;80.40;;;;;;5066424;28;20048;-73
2023/03/03 08:40:37;;;;;;;30.50;14.45;;;3.00;80.30;;;;;;5065216;28;20048;-71
2023/03/03 08:43:05;;;;;;;28.15;14.43;;;3.10;80.60;;;;;;5067874;28;20943;-72
2023/03/03 08:45:33;;;;;;;32.10;15.25;;;3.20;80.30;;;;;;5066605;28;20045;-71
2023/03/03 08:48:00;;;;;;;29.17;14.35;;;3.30;80.30;;;;;;5066235;28;20070;-73
2023/03/03 08:50:31;;;;;;;28.23;14.57;;;3.30;80.30;;;;;;5065469;28;20501;-72
2023/03/03 08:52:58;;;;;;;30.67;14.75;;;3.40;80.20;;;;;;5067332;28;20067;-72
2023/03/03 08:55:25;;;;;;;29.02;13.93;;;3.40;80.00;;;;;;5066397;28;20052;-72
2023/03/03 08:57:53;;;;;;;27.98;14.23;;;3.40;79.90;;;;;;5065480;28;20388;-73
2023/03/03 09:00:20;;;;;;;31.17;14.15;;;3.40;80.00;;;;;;5067836;28;20040;-63
2023/03/03 09:02:49;;;;;;;31.45;14.77;;;3.40;79.70;;;;;;5068483;28;20052;-63
2023/03/03 09:05:17;;;;;;;32.97;15.18;;;3.40;79.90;;;;;;5067680;28;20048;-62
2023/03/03 09:07:45;;;;;;;27.08;13.02;;;3.40;79.70;;;;;;5067156;28;20135;-63
2023/03/03 09:10:15;;;;;;;29.33;13.82;;;3.50;79.80;;;;;;5065406;28;20052;-64
2023/03/03 09:12:47;;;;;;;30.70;14.13;;;3.50;79.50;;;;;;5068438;28;20049;-64
2023/03/03 09:15:20;;;;;;;29.80;14.25;;;3.50;79.50;;;;;;5067644;28;20062;-63
2023/03/03 09:17:48;;;;;;;30.30;13.68;;;3.50;79.30;;;;;;5068532;28;20037;-64
2023/03/03 09:20:24;;;;;;;28.75;13.95;;;3.50;79.50;;;;;;5066253;28;20053;-64
2023/03/03 09:22:51;;;;;;;29.35;13.23;;;3.50;79.20;;;;;;5065622;28;20186;-64
2023/03/03 09:25:31;;;;;;;27.92;13.57;;;3.60;79.20;;;;;;5066052;28;20041;-64
2023/03/03 09:27:57;;;;;;;26.13;13.50;;;3.60;79.30;;;;;;5067568;28;20597;-63
2023/03/03 09:30:36;;;;;;;25.85;13.65;;;3.70;79.00;;;;;;5065520;28;20052;-64
2023/03/03 09:33:16;;;;;;;27.45;14.02;;;3.70;78.60;;;;;;5067376;28;20078;-64
2023/03/03 09:35:44;;;;;;;;;;;3.70;78.70;;;;;;5068504;28;20047;-64
2023/03/03 09:38:26;;;;;;;24.42;12.50;;;3.70;78.60;;;;;;5066968;28;19956;-64
2023/03/03 09:41:24;;;;;;;26.58;12.90;;;3.70;78.80;;;;;;5066223;28;20040;-63
2023/03/03 09:44:02;;;;;;;32.03;13.75;;;3.90;78.60;;;;;;5053005;28;20475;-63
2023/03/03 09:46:40;;;;;;;28.80;13.75;;;3.90;78.20;;;;;;5066504;28;20499;-64
2023/03/03 09:49:19;;;;;;;26.67;13.20;;;4.00;78.00;;;;;;5064837;28;20052;-64
2023/03/03 09:52:02;;;;;;;26.20;13.18;;;4.10;77.90;;;;;;5067038;28;20127;-65
2023/03/03 09:54:48;;;;;;;23.48;11.80;;;4.20;77.80;;;;;;5065407;28;20049;-64
2023/03/03 09:57:20;;;;;;;24.05;12.07;;;4.30;77.40;;;;;;5065947;28;20056;-63
2023/03/03 10:00:15;;;;;;;22.23;11.55;;;4.40;77.20;;;;;;5067300;28;20067;-64
2023/03/03 10:03:03;;;;;;;23.58;12.13;;;4.50;77.00;;;;;;5060540;28;20053;-63
2023/03/03 10:05:41;;;;;;;24.98;12.57;;;4.60;76.90;;;;;;5069947;28;20048;-61
2023/03/03 10:08:28;;;;;;;20.55;10.70;;;4.70;76.60;;;;;;5063736;28;20625;-63
2023/03/03 10:11:03;;;;;;;22.23;11.55;;;4.90;76.40;;;;;;5066395;28;20063;-64
2023/03/03 10:13:49;;;;;;;19.13;10.63;;;4.90;76.10;;;;;;5066867;28;20048;-64
2023/03/03 10:16:32;;;;;;;22.13;10.95;;;5.10;75.60;;;;;;5067983;28;20051;-63
2023/03/03 10:19:02;;;;;;;21.48;10.95;;;5.20;74.90;;;;;;5063755;28;20044;-63
2023/03/03 10:21:36;;;;;;;21.10;9.70;;;5.40;74.70;;;;;;5067271;28;20493;-64
2023/03/03 10:24:19;;;;;;;21.20;10.00;;;5.40;74.20;;;;;;5065127;28;20047;-64
2023/03/03 10:26:58;;;;;;;20.40;10.15;;;5.50;73.70;;;;;;5065148;28;20045;-64
2023/03/03 10:29:35;;;;;;;19.45;10.27;;;5.60;73.80;;;;;;5067074;28;20056;-64
2023/03/03 10:32:29;;;;;;;18.52;9.25;;;5.70;73.50;;;;;;5065659;28;20509;-63
2023/03/03 10:35:41;;;;;;;18.52;9.55;;;5.80;73.40;;;;;;5065491;28;20053;-64
2023/03/03 10:38:26;;;;;;;18.42;9.88;;;5.80;73.10;;;;;;4983685;28;20050;-64
2023/03/03 10:41:04;;;;;;;22.48;10.35;;;5.90;72.50;;;;;;4984556;28;20062;-62
2023/03/03 10:43:45;;;;;;;16.88;9.00;;;6.00;72.10;;;;;;5041069;28;20048;-64
2023/03/03 10:46:30;;;;;;;18.35;9.25;;;6.10;71.90;;;;;;5064855;28;20095;-63
2023/03/03 10:49:18;;;;;;;19.85;8.82;;;6.20;71.70;;;;;;5065707;28;20505;-63
2023/03/03 10:52:04;;;;;;;17.67;9.30;;;6.20;71.20;;;;;;5066194;28;20110;-64
2023/03/03 10:54:48;;;;;;;19.33;9.75;;;6.30;71.00;;;;;;5065168;28;20052;-64
2023/03/03 10:57:22;;;;;;;19.08;9.68;;;6.40;70.50;;;;;;5066426;28;20057;-63
2023/03/03 11:00:21;;;;;;;16.80;9.05;;;6.40;70.00;;;;;;5066106;28;20257;-64
2023/03/03 11:03:12;;;;;;;17.40;9.18;;;6.50;70.20;;;;;;5065875;28;20052;-64
2023/03/03 11:05:42;;;;;;;19.98;9.07;;;6.60;70.10;;;;;;5041291;28;20036;-65
2023/03/03 11:08:14;;;;;;;;;;;6.60;69.40;;;;;;5063334;28;20052;-62
2023/03/03 11:10:50;;;;;;;17.75;8.20;;;6.70;69.80;;;;;;5066408;28;19924;-62
2023/03/03 11:13:26;;;;;;;19.88;9.88;;;6.70;69.60;;;;;;5066272;28;20056;-64
2023/03/03 11:16:17;;;;;;;17.35;8.75;;;6.80;69.10;;;;;;5069554;28;20045;-63
2023/03/03 11:19:00;;;;;;;23.30;10.07;;;6.80;69.30;;;;;;5069123;28;20051;-64
2023/03/03 11:21:33;;;;;;;19.67;9.95;;;6.80;69.00;;;;;;5069722;28;20144;-63
2023/03/03 11:24:15;;;;;;;20.13;9.70;;;6.90;68.50;;;;;;5069140;28;20052;-64
2023/03/03 11:26:56;;;;;;;20.25;9.80;;;7.00;68.70;;;;;;5069402;28;20045;-64
2023/03/03 11:29:31;;;;;;;16.90;9.25;;;7.00;68.30;;;;;;5069884;28;20049;-64
2023/03/03 11:32:03;;;;;;;19.02;9.35;;;7.10;68.00;;;;;;5068973;28;20044;-62
2023/03/03 11:34:57;;;;;;;17.75;9.50;;;7.10;67.60;;;;;;5069172;28;20060;-65
2023/03/03 11:37:29;;;;;;;18.23;9.10;;;7.20;67.90;;;;;;5069138;28;20047;-64
2023/03/03 11:40:03;;;;;;;19.08;9.63;;;7.20;67.10;;;;;;5068385;28;20048;-65
2023/03/03 11:42:42;;;;;;;17.02;8.82;;;7.10;67.00;;;;;;5067041;28;20059;-64
2023/03/03 11:45:17;;;;;;;18.25;9.27;;;7.20;67.30;;;;;;5069141;28;20059;-63
2023/03/03 11:47:52;;;;;;;19.23;9.57;;;7.20;67.10;;;;;;5067427;28;20044;-64
2023/03/03 11:50:23;;;;;;;19.10;9.48;;;7.20;66.50;;;;;;5068251;28;20063;-65
2023/03/03 11:52:54;;;;;;;16.02;9.40;;;7.20;66.70;;;;;;5067489;28;20098;-64
2023/03/03 11:55:27;;;;;;;16.38;8.65;;;7.20;66.70;;;;;;5069454;28;20106;-65
2023/03/03 11:58:02;;;;;;;18.52;9.18;;;7.20;66.90;;;;;;5067800;28;20044;-64
2023/03/03 12:00:34;;;;;;;18.00;8.43;;;7.20;66.50;;;;;;5068116;28;20052;-65
2023/03/03 12:03:17;;;;;;;19.33;9.23;;;7.20;66.80;;;;;;5068115;28;20108;-66
2023/03/03 12:05:54;;;;;;;16.95;8.77;;;7.20;66.80;;;;;;5068465;28;20041;-65
2023/03/03 12:08:49;;;;;;;16.65;8.63;;;7.10;66.80;;;;;;5065507;28;20059;-64
2023/03/03 12:11:24;;;;;;;16.40;8.70;;;7.00;67.10;;;;;;5061983;28;20102;-64
2023/03/03 12:13:58;;;;;;;17.48;8.70;;;7.00;67.00;;;;;;5068507;28;20049;-64
2023/03/03 12:16:39;;;;;;;19.55;9.35;;;7.10;67.40;;;;;;5066705;28;20086;-64
2023/03/03 12:19:22;;;;;;;19.65;9.48;;;7.10;67.30;;;;;;5065506;28;20048;-65
2023/03/03 12:22:05;;;;;;;18.25;9.38;;;7.00;67.10;;;;;;5067662;28;20052;-65
2023/03/03 12:24:46;;;;;;;18.23;9.07;;;7.00;67.30;;;;;;5067736;28;20117;-64
2023/03/03 12:27:20;;;;;;;;;;;7.00;67.70;;;;;;5069196;28;20063;-65
2023/03/03 12:30:05;;;;;;;16.42;8.30;;;7.00;67.60;;;;;;5066910;28;19925;-64
2023/03/03 12:32:48;;;;;;;20.63;10.40;;;7.00;67.50;;;;;;5065677;28;20049;-65
2023/03/03 12:35:24;;;;;;;16.00;8.23;;;7.00;67.30;;;;;;5068524;28;20403;-65
2023/03/03 12:38:03;;;;;;;15.48;8.15;;;7.00;67.30;;;;;;5068176;28;20136;-64
2023/03/03 12:40:34;;;;;;;17.23;8.48;;;7.00;67.30;;;;;;5069425;28;20045;-65
2023/03/03 12:43:17;;;;;;;18.40;8.82;;;7.00;67.40;;;;;;5067856;28;20403;-65
2023/03/03 12:45:55;;;;;;;15.30;8.25;;;7.00;67.40;;;;;;5065756;28;20048;-66
2023/03/03 12:48:27;;;;;;;16.25;7.65;;;7.10;67.40;;;;;;5066678;28;20051;-65
2023/03/03 12:51:05;;;;;;;15.35;8.07;;;7.10;67.50;;;;;;5066048;28;20052;-64
2023/03/03 12:54:12;;;;;;;17.88;7.85;;;7.10;67.50;;;;;;5064017;28;20059;-66
2023/03/03 12:56:47;;;;;;;14.57;7.70;;;7.10;67.70;;;;;;5042374;28;20128;-65
2023/03/03 12:59:25;;;;;;;15.85;8.50;;;7.10;68.10;;;;;;5067929;28;20121;-66
2023/03/03 13:02:28;;;;;;;18.95;8.02;;;7.00;67.50;;;;;;5068025;28;20482;-67
2023/03/03 13:05:01;;;;;;;21.80;10.48;;;7.10;67.60;;;;;;5057208;28;20053;-66
2023/03/03 13:07:36;;;;;;;22.33;11.43;;;7.10;67.70;;;;;;5063607;28;20412;-63
2023/03/03 13:10:11;;;;;;;21.33;10.32;;;7.10;67.80;;;;;;5066076;28;20492;-66